sensor_id;sensor_type;location;lat;lon;timestamp;temperature;humidity
43808;DHT22;29438;50.664;10.098;2023-02-12T00:02:24;3.90;95.40
43808;DHT22;29438;50.664;10.098;2023-02-12T00:04:50;3.90;95.50
43808;DHT22;29438;50.664;10.098;2023-02-12T00:07:15;3.90;95.40
43808;DHT22;29438;50.664;10.098;2023-02-12T00:09:41;3.90;95.40
43808;DHT22;29438;50.664;10.098;2023-02-12T00:12:06;3.90;95.50
43808;DHT22;29438;50.664;10.098;2023-02-12T00:14:32;3.90;95.50
43808;DHT22;29438;50.664;10.098;2023-02-12T00:16:59;3.90;95.50
43808;DHT22;29438;50.664;10.098;2023-02-12T00:19:24;3.90;95.50
43808;DHT22;29438;50.664;10.098;2023-02-12T00:21:50;3.90;95.50
43808;DHT22;29438;50.664;10.098;2023-02-12T00:24:15;3.90;95.50
43808;DHT22;29438;50.664;10.098;2023-02-12T00:26:41;3.90;95.50
43808;DHT22;29438;50.664;10.098;2023-02-12T00:29:06;3.90;95.50
43808;DHT22;29438;50.664;10.098;2023-02-12T00:31:32;4.00;95.60
43808;DHT22;29438;50.664;10.098;2023-02-12T00:33:58;4.00;95.60
43808;DHT22;29438;50.664;10.098;2023-02-12T00:36:26;3.90;95.50
43808;DHT22;29438;50.664;10.098;2023-02-12T00:38:53;4.00;95.60
43808;DHT22;29438;50.664;10.098;2023-02-12T00:41:20;3.90;95.60
43808;DHT22;29438;50.664;10.098;2023-02-12T00:43:45;4.00;95.60
43808;DHT22;29438;50.664;10.098;2023-02-12T00:46:11;4.00;95.60
43808;DHT22;29438;50.664;10.098;2023-02-12T00:48:37;3.90;95.60
43808;DHT22;29438;50.664;10.098;2023-02-12T00:51:03;4.00;95.60
43808;DHT22;29438;50.664;10.098;2023-02-12T00:53:29;4.00;95.60
43808;DHT22;29438;50.664;10.098;2023-02-12T00:55:55;3.90;95.60
43808;DHT22;29438;50.664;10.098;2023-02-12T00:58:20;4.00;95.60
43808;DHT22;29438;50.664;10.098;2023-02-12T01:00:46;4.00;95.60
43808;DHT22;29438;50.664;10.098;2023-02-12T01:03:12;3.90;95.60
43808;DHT22;29438;50.664;10.098;2023-02-12T01:05:37;3.90;95.60
43808;DHT22;29438;50.664;10.098;2023-02-12T01:08:03;3.90;95.60
43808;DHT22;29438;50.664;10.098;2023-02-12T01:10:29;3.90;95.60
43808;DHT22;29438;50.664;10.098;2023-02-12T01:12:55;3.90;95.60
43808;DHT22;29438;50.664;10.098;2023-02-12T01:15:21;3.90;95.60
43808;DHT22;29438;50.664;10.098;2023-02-12T01:17:46;3.90;95.60
43808;DHT22;29438;50.664;10.098;2023-02-12T01:20:15;3.90;95.70
43808;DHT22;29438;50.664;10.098;2023-02-12T01:22:43;3.90;95.70
43808;DHT22;29438;50.664;10.098;2023-02-12T01:25:09;3.90;95.70
43808;DHT22;29438;50.664;10.098;2023-02-12T01:27:35;3.90;95.70
43808;DHT22;29438;50.664;10.098;2023-02-12T01:30:01;3.90;95.70
43808;DHT22;29438;50.664;10.098;2023-02-12T01:32:27;3.90;95.70
43808;DHT22;29438;50.664;10.098;2023-02-12T01:34:52;3.90;95.70
43808;DHT22;29438;50.664;10.098;2023-02-12T01:37:18;4.00;95.70
43808;DHT22;29438;50.664;10.098;2023-02-12T01:39:43;4.00;95.70
43808;DHT22;29438;50.664;10.098;2023-02-12T01:42:14;4.00;95.70
43808;DHT22;29438;50.664;10.098;2023-02-12T01:44:45;4.00;95.70
43808;DHT22;29438;50.664;10.098;2023-02-12T01:47:29;4.00;95.80
43808;DHT22;29438;50.664;10.098;2023-02-12T01:49:55;4.00;95.80
43808;DHT22;29438;50.664;10.098;2023-02-12T01:52:29;4.00;95.80
43808;DHT22;29438;50.664;10.098;2023-02-12T01:55:00;4.00;95.80
43808;DHT22;29438;50.664;10.098;2023-02-12T01:57:28;4.00;95.70
43808;DHT22;29438;50.664;10.098;2023-02-12T01:59:57;4.00;95.80
43808;DHT22;29438;50.664;10.098;2023-02-12T02:02:24;4.00;95.80
43808;DHT22;29438;50.664;10.098;2023-02-12T02:04:53;4.00;95.80
43808;DHT22;29438;50.664;10.098;2023-02-12T02:07:20;4.00;95.80
43808;DHT22;29438;50.664;10.098;2023-02-12T02:09:46;4.00;95.80
43808;DHT22;29438;50.664;10.098;2023-02-12T02:12:11;4.00;95.80
43808;DHT22;29438;50.664;10.098;2023-02-12T02:14:58;4.10;95.80
43808;DHT22;29438;50.664;10.098;2023-02-12T02:23:13;4.10;95.80
43808;DHT22;29438;50.664;10.098;2023-02-12T02:34:32;4.20;95.90
43808;DHT22;29438;50.664;10.098;2023-02-12T02:37:16;4.20;95.90
43808;DHT22;29438;50.664;10.098;2023-02-12T02:39:52;4.20;95.80
43808;DHT22;29438;50.664;10.098;2023-02-12T02:45:00;4.20;95.90
43808;DHT22;29438;50.664;10.098;2023-02-12T02:47:37;4.20;95.80
43808;DHT22;29438;50.664;10.098;2023-02-12T02:50:13;4.20;95.80
43808;DHT22;29438;50.664;10.098;2023-02-12T02:52:52;4.20;95.90
43808;DHT22;29438;50.664;10.098;2023-02-12T02:55:21;4.20;95.80
43808;DHT22;29438;50.664;10.098;2023-02-12T02:57:56;4.20;95.90
43808;DHT22;29438;50.664;10.098;2023-02-12T03:00:28;4.20;95.80
43808;DHT22;29438;50.664;10.098;2023-02-12T03:03:00;4.20;95.80
43808;DHT22;29438;50.664;10.098;2023-02-12T03:05:38;4.20;95.80
43808;DHT22;29438;50.664;10.098;2023-02-12T03:08:09;4.20;95.80
43808;DHT22;29438;50.664;10.098;2023-02-12T03:10:43;4.10;95.80
43808;DHT22;29438;50.664;10.098;2023-02-12T03:13:14;4.20;95.90
43808;DHT22;29438;50.664;10.098;2023-02-12T03:15:45;4.20;95.90
43808;DHT22;29438;50.664;10.098;2023-02-12T03:18:23;4.20;95.80
43808;DHT22;29438;50.664;10.098;2023-02-12T03:20:56;4.10;95.80
43808;DHT22;29438;50.664;10.098;2023-02-12T03:23:37;4.20;95.80
43808;DHT22;29438;50.664;10.098;2023-02-12T03:26:08;4.10;95.90
43808;DHT22;29438;50.664;10.098;2023-02-12T03:28:36;4.20;95.90
43808;DHT22;29438;50.664;10.098;2023-02-12T03:31:27;4.20;95.90
43808;DHT22;29438;50.664;10.098;2023-02-12T03:34:09;4.20;95.90
43808;DHT22;29438;50.664;10.098;2023-02-12T03:36:56;4.20;95.90
43808;DHT22;29438;50.664;10.098;2023-02-12T03:39:49;4.20;95.90
43808;DHT22;29438;50.664;10.098;2023-02-12T03:42:29;4.20;95.90
43808;DHT22;29438;50.664;10.098;2023-02-12T03:45:13;4.20;95.90
43808;DHT22;29438;50.664;10.098;2023-02-12T03:47:47;4.20;95.90
43808;DHT22;29438;50.664;10.098;2023-02-12T03:50:27;4.20;95.90
43808;DHT22;29438;50.664;10.098;2023-02-12T03:52:56;4.20;95.90
43808;DHT22;29438;50.664;10.098;2023-02-12T03:55:21;4.20;95.90
43808;DHT22;29438;50.664;10.098;2023-02-12T03:57:51;4.20;95.90
43808;DHT22;29438;50.664;10.098;2023-02-12T04:00:21;4.20;95.90
43808;DHT22;29438;50.664;10.098;2023-02-12T04:02:47;4.20;95.90
43808;DHT22;29438;50.664;10.098;2023-02-12T04:05:20;4.20;95.90
43808;DHT22;29438;50.664;10.098;2023-02-12T04:07:46;4.20;95.90
43808;DHT22;29438;50.664;10.098;2023-02-12T04:10:12;4.20;95.90
43808;DHT22;29438;50.664;10.098;2023-02-12T04:12:50;4.20;96.00
43808;DHT22;29438;50.664;10.098;2023-02-12T04:15:33;4.30;96.00
43808;DHT22;29438;50.664;10.098;2023-02-12T04:18:04;4.30;96.00
43808;DHT22;29438;50.664;10.098;2023-02-12T04:23:47;4.30;96.00
43808;DHT22;29438;50.664;10.098;2023-02-12T04:26:16;4.20;96.00
43808;DHT22;29438;50.664;10.098;2023-02-12T04:31:27;4.20;96.00
43808;DHT22;29438;50.664;10.098;2023-02-12T04:34:13;4.20;96.00
43808;DHT22;29438;50.664;10.098;2023-02-12T04:36:55;4.20;96.00
43808;DHT22;29438;50.664;10.098;2023-02-12T04:39:26;4.20;96.00
43808;DHT22;29438;50.664;10.098;2023-02-12T04:41:53;4.20;96.00
43808;DHT22;29438;50.664;10.098;2023-02-12T04:44:24;4.20;96.00
43808;DHT22;29438;50.664;10.098;2023-02-12T04:46:51;4.20;96.00
43808;DHT22;29438;50.664;10.098;2023-02-12T04:49:18;4.20;96.00
43808;DHT22;29438;50.664;10.098;2023-02-12T04:51:44;4.20;96.00
43808;DHT22;29438;50.664;10.098;2023-02-12T04:54:11;4.20;96.00
43808;DHT22;29438;50.664;10.098;2023-02-12T04:56:37;4.20;96.10
43808;DHT22;29438;50.664;10.098;2023-02-12T04:59:03;4.20;96.10
43808;DHT22;29438;50.664;10.098;2023-02-12T05:01:28;4.20;96.10
43808;DHT22;29438;50.664;10.098;2023-02-12T05:03:54;4.30;96.00
43808;DHT22;29438;50.664;10.098;2023-02-12T05:06:19;4.20;96.00
43808;DHT22;29438;50.664;10.098;2023-02-12T05:08:45;4.30;96.10
43808;DHT22;29438;50.664;10.098;2023-02-12T05:11:11;4.30;96.10
43808;DHT22;29438;50.664;10.098;2023-02-12T05:13:37;4.20;96.10
43808;DHT22;29438;50.664;10.098;2023-02-12T05:16:04;4.20;96.10
43808;DHT22;29438;50.664;10.098;2023-02-12T05:18:30;4.20;96.10
43808;DHT22;29438;50.664;10.098;2023-02-12T05:21:00;4.30;96.10
43808;DHT22;29438;50.664;10.098;2023-02-12T05:23:28;4.30;96.10
43808;DHT22;29438;50.664;10.098;2023-02-12T05:25:56;4.30;96.10
43808;DHT22;29438;50.664;10.098;2023-02-12T05:28:22;4.30;96.10
43808;DHT22;29438;50.664;10.098;2023-02-12T05:30:47;4.30;96.10
43808;DHT22;29438;50.664;10.098;2023-02-12T05:33:13;4.30;96.10
43808;DHT22;29438;50.664;10.098;2023-02-12T05:35:38;4.30;96.10
43808;DHT22;29438;50.664;10.098;2023-02-12T05:38:04;4.30;96.10
43808;DHT22;29438;50.664;10.098;2023-02-12T05:40:29;4.30;96.10
43808;DHT22;29438;50.664;10.098;2023-02-12T05:42:55;4.30;96.10
43808;DHT22;29438;50.664;10.098;2023-02-12T05:45:20;4.40;96.10
43808;DHT22;29438;50.664;10.098;2023-02-12T05:47:52;4.40;96.10
43808;DHT22;29438;50.664;10.098;2023-02-12T05:50:18;4.40;96.10
43808;DHT22;29438;50.664;10.098;2023-02-12T05:52:43;4.40;96.10
43808;DHT22;29438;50.664;10.098;2023-02-12T05:55:09;4.40;96.10
43808;DHT22;29438;50.664;10.098;2023-02-12T05:57:34;4.40;96.10
43808;DHT22;29438;50.664;10.098;2023-02-12T05:59:59;4.40;96.10
43808;DHT22;29438;50.664;10.098;2023-02-12T06:02:25;4.40;96.20
43808;DHT22;29438;50.664;10.098;2023-02-12T06:04:51;4.40;96.20
43808;DHT22;29438;50.664;10.098;2023-02-12T06:07:16;4.40;96.20
43808;DHT22;29438;50.664;10.098;2023-02-12T06:09:41;4.40;96.20
43808;DHT22;29438;50.664;10.098;2023-02-12T06:12:07;4.40;96.20
43808;DHT22;29438;50.664;10.098;2023-02-12T06:14:32;4.40;96.20
43808;DHT22;29438;50.664;10.098;2023-02-12T06:16:58;4.40;96.20
43808;DHT22;29438;50.664;10.098;2023-02-12T06:19:24;4.40;96.20
43808;DHT22;29438;50.664;10.098;2023-02-12T06:21:49;4.40;96.20
43808;DHT22;29438;50.664;10.098;2023-02-12T06:24:15;4.40;96.20
43808;DHT22;29438;50.664;10.098;2023-02-12T06:26:41;4.30;96.10
43808;DHT22;29438;50.664;10.098;2023-02-12T06:29:06;4.30;96.20
43808;DHT22;29438;50.664;10.098;2023-02-12T06:31:35;4.30;96.20
43808;DHT22;29438;50.664;10.098;2023-02-12T06:34:02;4.30;96.20
43808;DHT22;29438;50.664;10.098;2023-02-12T06:36:28;4.30;96.20
43808;DHT22;29438;50.664;10.098;2023-02-12T06:38:54;4.30;96.20
43808;DHT22;29438;50.664;10.098;2023-02-12T06:41:20;4.30;96.20
43808;DHT22;29438;50.664;10.098;2023-02-12T06:43:46;4.40;96.20
43808;DHT22;29438;50.664;10.098;2023-02-12T06:46:13;4.30;96.20
43808;DHT22;29438;50.664;10.098;2023-02-12T06:48:38;4.30;96.20
43808;DHT22;29438;50.664;10.098;2023-02-12T06:51:09;4.30;96.20
43808;DHT22;29438;50.664;10.098;2023-02-12T06:53:35;4.30;96.20
43808;DHT22;29438;50.664;10.098;2023-02-12T06:56:02;4.30;96.20
43808;DHT22;29438;50.664;10.098;2023-02-12T06:58:28;4.30;96.20
43808;DHT22;29438;50.664;10.098;2023-02-12T07:00:54;4.30;96.30
43808;DHT22;29438;50.664;10.098;2023-02-12T07:03:19;4.30;96.30
43808;DHT22;29438;50.664;10.098;2023-02-12T07:05:45;4.30;96.30
43808;DHT22;29438;50.664;10.098;2023-02-12T07:08:13;4.30;96.30
43808;DHT22;29438;50.664;10.098;2023-02-12T07:10:38;4.30;96.30
43808;DHT22;29438;50.664;10.098;2023-02-12T07:13:04;4.30;96.30
43808;DHT22;29438;50.664;10.098;2023-02-12T07:15:30;4.30;96.30
43808;DHT22;29438;50.664;10.098;2023-02-12T07:17:55;4.40;96.30
43808;DHT22;29438;50.664;10.098;2023-02-12T07:20:21;4.30;96.30
43808;DHT22;29438;50.664;10.098;2023-02-12T07:22:46;4.40;96.30
43808;DHT22;29438;50.664;10.098;2023-02-12T07:25:12;4.40;96.30
43808;DHT22;29438;50.664;10.098;2023-02-12T07:27:37;4.40;96.40
43808;DHT22;29438;50.664;10.098;2023-02-12T07:30:04;4.40;96.40
43808;DHT22;29438;50.664;10.098;2023-02-12T07:32:33;4.50;96.40
43808;DHT22;29438;50.664;10.098;2023-02-12T07:34:59;4.60;96.40
43808;DHT22;29438;50.664;10.098;2023-02-12T07:37:25;4.60;96.40
43808;DHT22;29438;50.664;10.098;2023-02-12T07:39:50;4.50;96.40
43808;DHT22;29438;50.664;10.098;2023-02-12T07:42:16;4.60;96.40
43808;DHT22;29438;50.664;10.098;2023-02-12T07:44:43;4.60;96.40
43808;DHT22;29438;50.664;10.098;2023-02-12T07:47:09;4.70;96.50
43808;DHT22;29438;50.664;10.098;2023-02-12T07:49:34;4.80;96.50
43808;DHT22;29438;50.664;10.098;2023-02-12T07:52:00;5.00;96.60
43808;DHT22;29438;50.664;10.098;2023-02-12T07:54:25;5.00;96.60
43808;DHT22;29438;50.664;10.098;2023-02-12T07:56:51;5.10;96.70
43808;DHT22;29438;50.664;10.098;2023-02-12T07:59:17;5.10;96.60
43808;DHT22;29438;50.664;10.098;2023-02-12T08:01:48;5.20;96.60
43808;DHT22;29438;50.664;10.098;2023-02-12T08:04:16;5.20;96.60
43808;DHT22;29438;50.664;10.098;2023-02-12T08:06:45;5.30;96.60
43808;DHT22;29438;50.664;10.098;2023-02-12T08:09:14;5.40;96.60
43808;DHT22;29438;50.664;10.098;2023-02-12T08:11:41;5.50;96.50
43808;DHT22;29438;50.664;10.098;2023-02-12T08:14:09;5.50;96.50
43808;DHT22;29438;50.664;10.098;2023-02-12T08:16:37;5.60;96.40
43808;DHT22;29438;50.664;10.098;2023-02-12T08:19:03;5.60;96.30
43808;DHT22;29438;50.664;10.098;2023-02-12T08:21:29;5.60;96.20
43808;DHT22;29438;50.664;10.098;2023-02-12T08:23:56;5.60;96.10
43808;DHT22;29438;50.664;10.098;2023-02-12T08:26:31;5.60;95.90
43808;DHT22;29438;50.664;10.098;2023-02-12T08:28:59;5.60;95.70
43808;DHT22;29438;50.664;10.098;2023-02-12T08:31:28;5.50;95.50
43808;DHT22;29438;50.664;10.098;2023-02-12T08:33:54;5.60;95.40
43808;DHT22;29438;50.664;10.098;2023-02-12T08:36:23;5.60;95.20
43808;DHT22;29438;50.664;10.098;2023-02-12T08:38:49;5.50;95.20
43808;DHT22;29438;50.664;10.098;2023-02-12T08:41:20;5.60;95.20
43808;DHT22;29438;50.664;10.098;2023-02-12T08:43:45;5.60;95.20
43808;DHT22;29438;50.664;10.098;2023-02-12T08:46:13;5.70;95.20
43808;DHT22;29438;50.664;10.098;2023-02-12T08:48:40;5.70;94.80
43808;DHT22;29438;50.664;10.098;2023-02-12T08:51:09;5.80;94.80
43808;DHT22;29438;50.664;10.098;2023-02-12T08:53:38;5.80;94.80
43808;DHT22;29438;50.664;10.098;2023-02-12T08:56:04;5.90;94.60
43808;DHT22;29438;50.664;10.098;2023-02-12T08:58:30;5.90;94.40
43808;DHT22;29438;50.664;10.098;2023-02-12T09:00:56;6.00;94.50
43808;DHT22;29438;50.664;10.098;2023-02-12T09:03:21;6.00;94.30
43808;DHT22;29438;50.664;10.098;2023-02-12T09:05:47;6.00;93.90
43808;DHT22;29438;50.664;10.098;2023-02-12T09:08:12;6.10;93.90
43808;DHT22;29438;50.664;10.098;2023-02-12T09:10:39;6.40;94.00
43808;DHT22;29438;50.664;10.098;2023-02-12T09:13:06;6.60;93.90
43808;DHT22;29438;50.664;10.098;2023-02-12T09:15:36;6.50;93.10
43808;DHT22;29438;50.664;10.098;2023-02-12T09:18:02;6.50;92.90
43808;DHT22;29438;50.664;10.098;2023-02-12T09:20:28;6.60;92.60
43808;DHT22;29438;50.664;10.098;2023-02-12T09:22:54;6.70;92.30
43808;DHT22;29438;50.664;10.098;2023-02-12T09:25:19;6.70;92.30
43808;DHT22;29438;50.664;10.098;2023-02-12T09:27:45;6.90;92.20
43808;DHT22;29438;50.664;10.098;2023-02-12T09:30:11;6.80;91.70
43808;DHT22;29438;50.664;10.098;2023-02-12T09:32:37;6.90;91.70
43808;DHT22;29438;50.664;10.098;2023-02-12T09:35:02;7.10;91.80
43808;DHT22;29438;50.664;10.098;2023-02-12T09:37:28;7.20;91.30
43808;DHT22;29438;50.664;10.098;2023-02-12T09:39:53;7.30;90.60
43808;DHT22;29438;50.664;10.098;2023-02-12T09:45:21;7.20;90.20
43808;DHT22;29438;50.664;10.098;2023-02-12T09:48:10;7.20;90.00
43808;DHT22;29438;50.664;10.098;2023-02-12T09:50:53;7.10;90.20
43808;DHT22;29438;50.664;10.098;2023-02-12T09:53:23;6.90;90.30
43808;DHT22;29438;50.664;10.098;2023-02-12T09:55:52;6.80;90.50
43808;DHT22;29438;50.664;10.098;2023-02-12T09:58:30;6.90;90.80
43808;DHT22;29438;50.664;10.098;2023-02-12T10:00:57;7.00;91.00
43808;DHT22;29438;50.664;10.098;2023-02-12T10:03:23;7.10;90.70
43808;DHT22;29438;50.664;10.098;2023-02-12T10:05:54;7.10;90.50
43808;DHT22;29438;50.664;10.098;2023-02-12T10:08:42;7.00;90.60
43808;DHT22;29438;50.664;10.098;2023-02-12T10:11:49;7.10;90.80
43808;DHT22;29438;50.664;10.098;2023-02-12T10:28:10;7.40;89.90
43808;DHT22;29438;50.664;10.098;2023-02-12T10:30:44;7.60;90.00
43808;DHT22;29438;50.664;10.098;2023-02-12T10:33:19;7.80;89.70
43808;DHT22;29438;50.664;10.098;2023-02-12T10:36:01;8.00;89.30
43808;DHT22;29438;50.664;10.098;2023-02-12T10:38:30;8.20;88.70
43808;DHT22;29438;50.664;10.098;2023-02-12T10:40:57;8.20;88.00
43808;DHT22;29438;50.664;10.098;2023-02-12T10:43:26;8.30;87.80
43808;DHT22;29438;50.664;10.098;2023-02-12T10:45:52;8.50;87.70
43808;DHT22;29438;50.664;10.098;2023-02-12T10:48:23;8.30;87.10
43808;DHT22;29438;50.664;10.098;2023-02-12T10:54:33;8.50;86.50
43808;DHT22;29438;50.664;10.098;2023-02-12T10:59:37;8.30;86.30
43808;DHT22;29438;50.664;10.098;2023-02-12T11:02:15;8.30;86.80
43808;DHT22;29438;50.664;10.098;2023-02-12T11:04:42;8.40;86.50
43808;DHT22;29438;50.664;10.098;2023-02-12T11:07:08;8.40;86.80
43808;DHT22;29438;50.664;10.098;2023-02-12T11:09:39;8.30;86.30
43808;DHT22;29438;50.664;10.098;2023-02-12T11:12:30;8.30;86.60
43808;DHT22;29438;50.664;10.098;2023-02-12T11:15:02;8.40;87.00
43808;DHT22;29438;50.664;10.098;2023-02-12T11:17:35;8.50;86.60
43808;DHT22;29438;50.664;10.098;2023-02-12T11:22:49;8.70;86.70
43808;DHT22;29438;50.664;10.098;2023-02-12T11:25:15;8.60;86.10
43808;DHT22;29438;50.664;10.098;2023-02-12T11:27:43;8.40;86.10
43808;DHT22;29438;50.664;10.098;2023-02-12T11:32:35;8.40;86.50
43808;DHT22;29438;50.664;10.098;2023-02-12T11:35:16;8.50;86.10
43808;DHT22;29438;50.664;10.098;2023-02-12T11:37:49;8.50;85.60
43808;DHT22;29438;50.664;10.098;2023-02-12T11:40:44;8.50;85.20
43808;DHT22;29438;50.664;10.098;2023-02-12T11:43:16;8.30;86.30
43808;DHT22;29438;50.664;10.098;2023-02-12T11:45:48;8.10;86.70
43808;DHT22;29438;50.664;10.098;2023-02-12T11:48:24;7.80;86.90
43808;DHT22;29438;50.664;10.098;2023-02-12T11:50:52;7.60;87.50
43808;DHT22;29438;50.664;10.098;2023-02-12T11:53:33;7.70;88.40
43808;DHT22;29438;50.664;10.098;2023-02-12T11:56:02;7.80;87.80
43808;DHT22;29438;50.664;10.098;2023-02-12T12:01:34;8.20;86.90
43808;DHT22;29438;50.664;10.098;2023-02-12T12:04:09;8.30;86.30
43808;DHT22;29438;50.664;10.098;2023-02-12T12:06:47;8.30;86.20
43808;DHT22;29438;50.664;10.098;2023-02-12T12:12:12;8.50;86.10
43808;DHT22;29438;50.664;10.098;2023-02-12T12:14:56;8.50;85.80
43808;DHT22;29438;50.664;10.098;2023-02-12T12:20:42;8.30;85.50
43808;DHT22;29438;50.664;10.098;2023-02-12T12:23:18;8.50;86.10
43808;DHT22;29438;50.664;10.098;2023-02-12T12:25:50;8.50;85.30
43808;DHT22;29438;50.664;10.098;2023-02-12T12:31:14;8.10;86.20
43808;DHT22;29438;50.664;10.098;2023-02-12T12:33:58;7.90;86.70
43808;DHT22;29438;50.664;10.098;2023-02-12T12:36:39;7.70;87.20
43808;DHT22;29438;50.664;10.098;2023-02-12T12:39:29;7.70;87.40
43808;DHT22;29438;50.664;10.098;2023-02-12T12:44:58;7.50;87.70
43808;DHT22;29438;50.664;10.098;2023-02-12T12:51:21;7.70;88.00
43808;DHT22;29438;50.664;10.098;2023-02-12T12:57:00;7.70;88.10
43808;DHT22;29438;50.664;10.098;2023-02-12T12:59:44;7.60;88.30
43808;DHT22;29438;50.664;10.098;2023-02-12T13:05:20;7.60;88.20
43808;DHT22;29438;50.664;10.098;2023-02-12T13:08:08;7.70;88.50
43808;DHT22;29438;50.664;10.098;2023-02-12T13:13:45;7.60;88.30
43808;DHT22;29438;50.664;10.098;2023-02-12T13:16:19;7.70;88.20
43808;DHT22;29438;50.664;10.098;2023-02-12T13:19:11;7.70;88.20
43808;DHT22;29438;50.664;10.098;2023-02-12T13:21:58;7.70;88.00
43808;DHT22;29438;50.664;10.098;2023-02-12T13:27:19;7.40;88.60
43808;DHT22;29438;50.664;10.098;2023-02-12T13:30:06;7.60;89.00
43808;DHT22;29438;50.664;10.098;2023-02-12T13:32:44;7.50;88.60
43808;DHT22;29438;50.664;10.098;2023-02-12T13:35:21;7.60;88.70
43808;DHT22;29438;50.664;10.098;2023-02-12T13:37:51;7.60;88.30
43808;DHT22;29438;50.664;10.098;2023-02-12T13:40:26;7.50;88.20
43808;DHT22;29438;50.664;10.098;2023-02-12T13:45:51;7.60;88.30
43808;DHT22;29438;50.664;10.098;2023-02-12T13:56:28;7.10;89.00
43808;DHT22;29438;50.664;10.098;2023-02-12T13:58:57;7.00;89.20
43808;DHT22;29438;50.664;10.098;2023-02-12T14:01:41;7.00;89.50
43808;DHT22;29438;50.664;10.098;2023-02-12T14:06:58;7.10;89.10
43808;DHT22;29438;50.664;10.098;2023-02-12T14:09:37;6.90;89.60
43808;DHT22;29438;50.664;10.098;2023-02-12T14:12:08;6.90;90.10
43808;DHT22;29438;50.664;10.098;2023-02-12T14:14:45;7.10;90.20
43808;DHT22;29438;50.664;10.098;2023-02-12T14:27:46;7.50;88.90
43808;DHT22;29438;50.664;10.098;2023-02-12T14:38:02;7.20;89.20
43808;DHT22;29438;50.664;10.098;2023-02-12T14:43:27;7.10;89.30
43808;DHT22;29438;50.664;10.098;2023-02-12T14:45:54;7.00;89.50
43808;DHT22;29438;50.664;10.098;2023-02-12T14:48:40;7.00;89.60
43808;DHT22;29438;50.664;10.098;2023-02-12T14:51:16;7.00;89.60
43808;DHT22;29438;50.664;10.098;2023-02-12T14:53:45;6.90;89.80
43808;DHT22;29438;50.664;10.098;2023-02-12T14:56:12;6.90;89.90
43808;DHT22;29438;50.664;10.098;2023-02-12T14:58:44;6.90;90.00
43808;DHT22;29438;50.664;10.098;2023-02-12T15:01:10;7.00;90.00
43808;DHT22;29438;50.664;10.098;2023-02-12T15:06:20;6.90;90.00
43808;DHT22;29438;50.664;10.098;2023-02-12T15:08:49;6.90;90.20
43808;DHT22;29438;50.664;10.098;2023-02-12T15:14:14;6.80;90.00
43808;DHT22;29438;50.664;10.098;2023-02-12T15:17:01;6.70;90.10
43808;DHT22;29438;50.664;10.098;2023-02-12T15:20:01;6.60;90.20
43808;DHT22;29438;50.664;10.098;2023-02-12T15:22:33;6.60;90.40
43808;DHT22;29438;50.664;10.098;2023-02-12T15:25:22;6.50;90.60
43808;DHT22;29438;50.664;10.098;2023-02-12T15:28:05;6.50;90.70
43808;DHT22;29438;50.664;10.098;2023-02-12T15:30:41;6.40;90.70
43808;DHT22;29438;50.664;10.098;2023-02-12T15:33:07;6.40;90.90
43808;DHT22;29438;50.664;10.098;2023-02-12T15:35:36;6.30;91.00
43808;DHT22;29438;50.664;10.098;2023-02-12T15:38:03;6.30;91.10
43808;DHT22;29438;50.664;10.098;2023-02-12T15:40:32;6.20;91.20
43808;DHT22;29438;50.664;10.098;2023-02-12T15:43:00;6.20;91.40
43808;DHT22;29438;50.664;10.098;2023-02-12T15:45:28;6.20;91.60
43808;DHT22;29438;50.664;10.098;2023-02-12T15:50:28;6.20;91.70
43808;DHT22;29438;50.664;10.098;2023-02-12T15:52:54;6.10;91.80
43808;DHT22;29438;50.664;10.098;2023-02-12T15:55:26;6.10;91.80
43808;DHT22;29438;50.664;10.098;2023-02-12T15:57:58;6.10;91.90
43808;DHT22;29438;50.664;10.098;2023-02-12T16:00:40;6.00;91.90
43808;DHT22;29438;50.664;10.098;2023-02-12T16:03:36;6.00;92.00
43808;DHT22;29438;50.664;10.098;2023-02-12T16:06:07;6.00;92.00
43808;DHT22;29438;50.664;10.098;2023-02-12T16:08:40;5.90;92.10
43808;DHT22;29438;50.664;10.098;2023-02-12T16:11:06;5.90;92.30
43808;DHT22;29438;50.664;10.098;2023-02-12T16:13:53;5.90;92.30
43808;DHT22;29438;50.664;10.098;2023-02-12T16:16:43;5.80;92.30
43808;DHT22;29438;50.664;10.098;2023-02-12T16:19:24;5.80;92.40
43808;DHT22;29438;50.664;10.098;2023-02-12T16:22:04;5.70;92.50
43808;DHT22;29438;50.664;10.098;2023-02-12T16:24:37;5.70;92.60
43808;DHT22;29438;50.664;10.098;2023-02-12T16:27:08;5.60;92.70
43808;DHT22;29438;50.664;10.098;2023-02-12T16:29:49;5.60;92.80
43808;DHT22;29438;50.664;10.098;2023-02-12T16:42:38;5.50;93.00
43808;DHT22;29438;50.664;10.098;2023-02-12T16:48:41;5.40;93.10
43808;DHT22;29438;50.664;10.098;2023-02-12T16:50:53;5.40;93.10
43808;DHT22;29438;50.664;10.098;2023-02-12T16:55:56;5.30;93.30
43808;DHT22;29438;50.664;10.098;2023-02-12T16:58:22;5.30;93.40
43808;DHT22;29438;50.664;10.098;2023-02-12T17:00:50;5.30;93.40
43808;DHT22;29438;50.664;10.098;2023-02-12T17:03:16;5.30;93.50
43808;DHT22;29438;50.664;10.098;2023-02-12T17:05:42;5.20;93.50
43808;DHT22;29438;50.664;10.098;2023-02-12T17:08:12;5.20;93.60
43808;DHT22;29438;50.664;10.098;2023-02-12T17:10:37;5.20;93.60
43808;DHT22;29438;50.664;10.098;2023-02-12T17:13:03;5.20;93.70
43808;DHT22;29438;50.664;10.098;2023-02-12T17:15:33;5.20;93.70
43808;DHT22;29438;50.664;10.098;2023-02-12T17:18:02;5.20;93.70
43808;DHT22;29438;50.664;10.098;2023-02-12T17:20:28;5.10;93.80
43808;DHT22;29438;50.664;10.098;2023-02-12T17:22:54;5.20;93.80
43808;DHT22;29438;50.664;10.098;2023-02-12T17:25:21;5.20;93.90
43808;DHT22;29438;50.664;10.098;2023-02-12T17:27:47;5.10;93.90
43808;DHT22;29438;50.664;10.098;2023-02-12T17:30:17;5.10;93.90
43808;DHT22;29438;50.664;10.098;2023-02-12T17:32:43;5.20;93.90
43808;DHT22;29438;50.664;10.098;2023-02-12T17:35:09;5.20;94.00
43808;DHT22;29438;50.664;10.098;2023-02-12T17:37:34;5.10;94.00
43808;DHT22;29438;50.664;10.098;2023-02-12T17:40:00;5.10;94.00
43808;DHT22;29438;50.664;10.098;2023-02-12T17:42:26;5.20;94.10
43808;DHT22;29438;50.664;10.098;2023-02-12T17:44:52;5.10;94.10
43808;DHT22;29438;50.664;10.098;2023-02-12T17:47:18;5.10;94.10
43808;DHT22;29438;50.664;10.098;2023-02-12T17:49:43;5.10;94.10
43808;DHT22;29438;50.664;10.098;2023-02-12T17:52:09;5.00;94.20
43808;DHT22;29438;50.664;10.098;2023-02-12T17:54:35;5.10;94.20
43808;DHT22;29438;50.664;10.098;2023-02-12T17:57:01;5.10;94.30
43808;DHT22;29438;50.664;10.098;2023-02-12T17:59:26;5.00;94.30
43808;DHT22;29438;50.664;10.098;2023-02-12T18:01:52;5.10;94.30
43808;DHT22;29438;50.664;10.098;2023-02-12T18:04:17;5.10;94.40
43808;DHT22;29438;50.664;10.098;2023-02-12T18:06:43;5.00;94.40
43808;DHT22;29438;50.664;10.098;2023-02-12T18:09:08;5.10;94.50
43808;DHT22;29438;50.664;10.098;2023-02-12T18:11:34;5.10;94.40